createdAt,value
2017-10-11T00:01:51.238Z,8.47
2017-10-11T00:04:17.489Z,8.43
2017-10-11T00:06:43.813Z,8.42
2017-10-11T00:09:10.022Z,8.32
2017-10-11T00:11:36.259Z,8.32
2017-10-11T00:14:02.495Z,8.39
2017-10-11T00:16:28.715Z,8.41
2017-10-11T00:18:55.058Z,8.26
2017-10-11T00:21:21.272Z,8.26
2017-10-11T00:23:47.527Z,8.31
2017-10-11T00:26:13.846Z,8.31
2017-10-11T00:28:40.070Z,8.30
2017-10-11T00:31:06.397Z,8.31
2017-10-11T00:33:32.628Z,8.28
2017-10-11T00:35:58.862Z,8.22
2017-10-11T00:38:25.082Z,8.18
2017-10-11T00:40:51.328Z,8.09
2017-10-11T00:43:17.646Z,8.14
2017-10-11T00:45:43.873Z,8.18
2017-10-11T00:48:10.108Z,8.15
2017-10-11T00:50:36.371Z,8.03
2017-10-11T00:53:02.670Z,7.97
2017-10-11T00:55:29.018Z,7.92
2017-10-11T00:57:55.246Z,7.83
2017-10-11T01:00:21.455Z,7.81
2017-10-11T01:02:47.700Z,7.74
2017-10-11T01:05:13.887Z,7.76
2017-10-11T01:07:40.157Z,7.82
2017-10-11T01:10:06.385Z,7.87
2017-10-11T01:12:32.595Z,7.92
2017-10-11T01:14:58.835Z,7.79
2017-10-11T01:17:25.071Z,7.84
2017-10-11T01:19:51.409Z,7.88
2017-10-11T01:22:17.656Z,7.86
2017-10-11T01:24:43.861Z,7.75
2017-10-11T01:27:10.098Z,7.79
2017-10-11T01:29:36.318Z,7.79
2017-10-11T01:32:02.661Z,7.77
2017-10-11T01:34:28.879Z,7.78
2017-10-11T01:36:55.112Z,7.74
2017-10-11T01:39:21.335Z,7.70
2017-10-11T01:41:47.589Z,7.75
2017-10-11T01:44:13.922Z,7.77
2017-10-11T01:46:40.150Z,7.82
2017-10-11T01:49:06.357Z,7.78
2017-10-11T01:51:32.603Z,7.74
2017-10-11T01:53:58.848Z,7.66
2017-10-11T01:56:25.153Z,7.59
2017-10-11T01:58:51.391Z,7.59
2017-10-11T02:01:17.630Z,7.56
2017-10-11T02:03:43.852Z,7.60
2017-10-11T02:06:10.070Z,7.60
2017-10-11T02:08:36.410Z,7.60
2017-10-11T02:11:02.633Z,7.61
2017-10-11T02:13:28.893Z,7.56
2017-10-11T02:15:55.214Z,7.46
2017-10-11T02:18:21.436Z,7.41
2017-10-11T02:20:47.765Z,7.43
2017-10-11T02:23:14.076Z,7.44
2017-10-11T02:25:40.506Z,7.33
2017-10-11T02:28:07.291Z,7.37
2017-10-11T02:30:33.601Z,7.35
2017-10-11T02:32:59.960Z,7.35
2017-10-11T02:35:26.263Z,7.32
2017-10-11T02:37:52.494Z,7.28
2017-10-11T02:40:18.735Z,7.16
2017-10-11T02:42:44.915Z,7.15
2017-10-11T02:45:11.308Z,7.10
2017-10-11T02:47:37.521Z,6.98
2017-10-11T02:50:03.789Z,6.88
2017-10-11T02:52:29.986Z,6.87
2017-10-11T02:54:56.195Z,6.89
2017-10-11T02:57:22.437Z,6.90
2017-10-11T02:59:48.668Z,6.95
2017-10-11T03:02:14.903Z,6.90
2017-10-11T03:04:41.128Z,6.85
2017-10-11T03:07:07.371Z,6.84
2017-10-11T03:09:33.685Z,6.85
2017-10-11T03:11:59.929Z,6.80
2017-10-11T03:14:26.166Z,6.81
2017-10-11T03:16:52.487Z,6.75
2017-10-11T03:19:18.703Z,6.68
2017-10-11T03:21:44.953Z,6.69
2017-10-11T03:24:11.175Z,6.66
2017-10-11T03:26:37.388Z,6.58
2017-10-11T03:29:03.649Z,6.56
2017-10-11T03:31:29.848Z,6.70
2017-10-11T03:33:56.199Z,6.84
2017-10-11T03:36:22.424Z,6.87
2017-10-11T03:38:48.633Z,6.92
2017-10-11T03:41:14.869Z,6.86
2017-10-11T03:43:41.112Z,6.92
2017-10-11T03:46:07.458Z,7.00
2017-10-11T03:48:33.659Z,6.97
2017-10-11T03:50:59.915Z,6.99
2017-10-11T03:53:26.135Z,6.99
2017-10-11T03:55:52.361Z,6.88
2017-10-11T03:58:18.705Z,6.95
2017-10-11T04:00:44.940Z,7.00
2017-10-11T04:03:11.271Z,7.01
2017-10-11T04:05:37.470Z,6.98
2017-10-11T04:08:03.699Z,6.96
2017-10-11T04:10:30.044Z,6.68
2017-10-11T04:12:56.284Z,6.58
2017-10-11T04:15:22.508Z,6.59
2017-10-11T04:17:48.753Z,6.55
2017-10-11T04:20:14.963Z,6.56
2017-10-11T04:22:41.286Z,6.54
2017-10-11T04:25:07.542Z,6.51
2017-10-11T04:27:33.754Z,6.47
2017-10-11T04:29:59.990Z,6.46
2017-10-11T04:32:26.224Z,6.45
2017-10-11T04:34:52.523Z,6.50
2017-10-11T04:37:18.777Z,6.54
2017-10-11T04:39:44.994Z,6.67
2017-10-11T04:42:11.240Z,6.60
2017-10-11T04:44:37.485Z,6.44
2017-10-11T04:47:03.802Z,6.55
2017-10-11T04:49:30.027Z,6.55
2017-10-11T04:51:56.249Z,6.56
2017-10-11T04:54:22.500Z,6.53
2017-10-11T04:56:48.717Z,6.65
2017-10-11T04:59:15.032Z,6.71
2017-10-11T05:01:41.283Z,6.80
2017-10-11T05:04:07.507Z,7.00
2017-10-11T05:06:33.823Z,7.18
2017-10-11T05:09:00.081Z,7.30
2017-10-11T05:11:26.399Z,7.47
2017-10-11T05:13:52.627Z,8.23
2017-10-11T05:16:18.884Z,9.31
2017-10-11T05:18:45.206Z,9.42
2017-10-11T05:21:11.429Z,9.18
2017-10-11T05:23:37.746Z,9.90
2017-10-11T05:26:04.023Z,10.17
2017-10-11T05:28:30.334Z,11.03
2017-10-11T05:30:56.673Z,11.91
2017-10-11T05:33:22.980Z,12.73
2017-10-11T05:35:49.241Z,13.19
2017-10-11T05:38:15.558Z,13.73
2017-10-11T05:40:41.786Z,14.07
2017-10-11T05:43:08.123Z,14.19
2017-10-11T05:45:34.364Z,14.93
2017-10-11T05:48:00.660Z,15.16
2017-10-11T05:50:26.920Z,14.71
2017-10-11T05:52:53.133Z,15.31
2017-10-11T05:55:19.469Z,15.79
2017-10-11T05:57:45.702Z,15.71
2017-10-11T06:00:11.955Z,15.46
2017-10-11T06:02:38.274Z,15.34
2017-10-11T06:05:04.498Z,14.52
2017-10-11T06:07:30.821Z,14.99
2017-10-11T06:09:57.050Z,16.28
2017-10-11T06:12:23.294Z,17.34
2017-10-11T06:14:49.631Z,18.20
2017-10-11T06:17:15.830Z,18.48
2017-10-11T06:19:42.185Z,18.78
2017-10-11T06:22:08.401Z,19.05
2017-10-11T06:24:34.644Z,18.99
2017-10-11T06:27:00.853Z,19.20
2017-10-11T06:29:27.082Z,18.75
2017-10-11T06:31:53.418Z,18.05
2017-10-11T06:34:19.668Z,17.82
2017-10-11T06:36:45.909Z,18.37
2017-10-11T06:39:12.112Z,18.15
2017-10-11T06:41:38.306Z,18.73
2017-10-11T06:44:04.545Z,19.47
2017-10-11T06:46:30.759Z,19.74
2017-10-11T06:48:56.962Z,19.02
2017-10-11T06:51:23.175Z,18.84
2017-10-11T06:53:49.385Z,18.91
2017-10-11T06:56:15.614Z,19.46
2017-10-11T06:58:41.837Z,19.46
2017-10-11T07:01:08.030Z,19.38
2017-10-11T07:03:34.242Z,19.29
2017-10-11T07:06:00.440Z,19.97
2017-10-11T07:08:26.680Z,20.77
2017-10-11T07:10:52.896Z,20.58
2017-10-11T07:13:20.141Z,20.63
2017-10-11T07:15:46.339Z,20.98
2017-10-11T07:18:12.526Z,20.66
2017-10-11T07:20:38.781Z,20.59
2017-10-11T07:23:04.981Z,20.77
2017-10-11T07:25:31.187Z,21.31
2017-10-11T07:27:57.381Z,21.59
2017-10-11T07:30:23.591Z,21.76
2017-10-11T07:32:49.807Z,21.78
2017-10-11T07:35:16.024Z,22.20
2017-10-11T07:37:42.236Z,21.69
2017-10-11T07:40:08.430Z,21.52
2017-10-11T07:42:34.657Z,21.54
2017-10-11T07:45:00.894Z,22.78
2017-10-11T07:47:27.118Z,22.09
2017-10-11T07:49:53.310Z,22.57
2017-10-11T07:52:19.504Z,23.18
2017-10-11T07:54:45.738Z,22.10
2017-10-11T07:57:11.966Z,21.56
2017-10-11T07:59:38.174Z,20.15
2017-10-11T08:02:04.374Z,20.66
2017-10-11T08:04:30.564Z,21.75
2017-10-11T08:06:56.776Z,22.59
2017-10-11T08:09:23.015Z,23.19
2017-10-11T08:11:49.217Z,23.37
2017-10-11T08:14:15.427Z,23.56
2017-10-11T08:16:42.015Z,24.36
2017-10-11T08:19:08.216Z,24.21
2017-10-11T08:21:34.448Z,23.06
2017-10-11T08:24:00.698Z,21.87
2017-10-11T08:26:26.926Z,20.51
2017-10-11T08:28:53.113Z,21.07
2017-10-11T08:31:19.329Z,22.31
2017-10-11T08:33:45.530Z,23.08
2017-10-11T08:36:11.739Z,23.81
2017-10-11T08:38:37.942Z,24.21
2017-10-11T08:41:04.167Z,25.26
2017-10-11T08:43:30.361Z,25.98
2017-10-11T08:45:56.545Z,25.85
2017-10-11T08:48:22.752Z,24.86
2017-10-11T08:50:48.970Z,24.41
2017-10-11T08:53:15.200Z,24.89
2017-10-11T08:55:41.438Z,25.65
2017-10-11T08:58:07.636Z,25.77
2017-10-11T09:00:33.835Z,25.19
2017-10-11T09:03:00.061Z,24.17
2017-10-11T09:05:26.294Z,24.25
2017-10-11T09:07:52.507Z,24.69
2017-10-11T09:10:18.718Z,25.02
2017-10-11T09:12:44.935Z,25.62
2017-10-11T09:15:11.128Z,24.81
2017-10-11T09:17:37.391Z,24.96
2017-10-11T09:20:03.618Z,25.25
2017-10-11T09:22:29.819Z,25.22
2017-10-11T09:24:56.024Z,25.17
2017-10-11T09:27:22.224Z,25.10
2017-10-11T09:29:48.456Z,24.87
2017-10-11T09:32:14.692Z,24.27
2017-10-11T09:34:40.894Z,23.91
2017-10-11T09:37:07.121Z,23.74
2017-10-11T09:39:33.302Z,24.13
2017-10-11T09:41:59.488Z,24.53
2017-10-11T09:44:25.686Z,24.85
2017-10-11T09:46:51.880Z,23.98
2017-10-11T09:49:18.116Z,24.33
2017-10-11T09:51:44.395Z,25.46
2017-10-11T09:54:10.644Z,25.79
2017-10-11T09:56:36.854Z,23.69
2017-10-11T09:59:03.614Z,23.22
2017-10-11T10:01:29.825Z,22.43
2017-10-11T10:03:56.078Z,22.96
2017-10-11T10:06:22.264Z,23.33
2017-10-11T10:08:48.463Z,23.68
2017-10-11T10:11:14.682Z,24.45
2017-10-11T10:18:33.993Z,25.08
2017-10-11T10:21:00.207Z,24.27
2017-10-11T10:23:26.418Z,23.47
2017-10-11T10:25:52.643Z,23.47
2017-10-11T10:28:18.874Z,24.24
2017-10-11T10:47:00.075Z,24.97
2017-10-11T10:49:26.324Z,25.90
2017-10-11T10:51:52.561Z,25.92
2017-10-11T10:54:18.781Z,25.58
2017-10-11T10:56:44.990Z,25.54
2017-10-11T10:59:11.207Z,25.55
2017-10-11T11:01:37.409Z,26.60
2017-10-11T11:04:03.653Z,26.94
2017-10-11T11:06:29.869Z,26.63
2017-10-11T11:08:56.074Z,26.08
2017-10-11T11:11:22.278Z,25.73
2017-10-11T11:13:48.506Z,25.79
2017-10-11T11:16:14.775Z,26.36
2017-10-11T11:18:40.961Z,26.65
2017-10-11T11:21:07.145Z,26.26
2017-10-11T11:23:33.344Z,25.81
2017-10-11T11:25:59.541Z,26.28
2017-10-11T11:28:25.807Z,26.62
2017-10-11T11:30:52.043Z,26.26
2017-10-11T11:33:18.228Z,26.11
2017-10-11T11:35:44.409Z,26.07
2017-10-11T11:38:10.644Z,25.39
2017-10-11T11:40:36.872Z,25.30
2017-10-11T11:43:03.049Z,25.85
2017-10-11T11:45:29.262Z,25.92
2017-10-11T11:47:55.463Z,26.45
2017-10-11T11:50:21.650Z,26.36
2017-10-11T11:52:47.918Z,26.64
2017-10-11T11:55:14.124Z,27.02
2017-10-11T11:57:40.326Z,27.10
2017-10-11T12:00:06.520Z,26.23
2017-10-11T12:02:32.714Z,26.39
2017-10-11T12:04:58.955Z,26.28
2017-10-11T12:07:25.163Z,26.84
2017-10-11T12:09:51.427Z,27.14
2017-10-11T12:12:17.631Z,27.25
2017-10-11T12:14:43.816Z,27.62
2017-10-11T12:17:10.074Z,27.89
2017-10-11T12:19:36.283Z,28.01
2017-10-11T12:22:02.459Z,27.22
2017-10-11T12:24:28.701Z,27.68
2017-10-11T12:26:54.901Z,28.10
2017-10-11T12:29:22.110Z,27.93
2017-10-11T12:31:48.310Z,28.08
2017-10-11T12:34:14.512Z,28.06
2017-10-11T12:36:40.735Z,28.47
2017-10-11T12:39:06.922Z,28.18
2017-10-11T12:41:33.136Z,28.63
2017-10-11T12:43:59.342Z,28.15
2017-10-11T12:46:25.542Z,27.99
2017-10-11T12:53:25.962Z,28.55
2017-10-11T12:55:52.164Z,27.78
2017-10-11T12:58:18.368Z,26.82
2017-10-11T13:00:44.631Z,26.32
2017-10-11T13:03:10.851Z,27.21
2017-10-11T13:05:37.042Z,27.60
2017-10-11T13:08:03.239Z,27.15
2017-10-11T13:10:29.448Z,26.60
2017-10-11T13:12:55.813Z,27.30
2017-10-11T13:15:22.021Z,27.86
2017-10-11T13:17:48.230Z,28.25
2017-10-11T13:20:14.471Z,27.84
2017-10-11T13:22:40.685Z,27.52
2017-10-11T13:25:06.871Z,28.12
2017-10-11T13:27:33.112Z,27.42
2017-10-11T13:29:59.304Z,27.77
2017-10-11T13:32:25.508Z,27.59
2017-10-11T13:34:51.705Z,27.95
2017-10-11T13:37:17.888Z,27.65
2017-10-11T13:39:44.108Z,27.70
2017-10-11T13:42:10.298Z,27.18
2017-10-11T13:44:36.510Z,27.14
2017-10-11T13:47:02.705Z,26.53
2017-10-11T13:49:28.893Z,26.82
2017-10-11T13:51:55.122Z,26.06
2017-10-11T13:54:21.303Z,26.41
2017-10-11T13:56:47.494Z,26.68
2017-10-11T13:59:15.809Z,26.22
2017-10-11T14:01:42.012Z,25.40
2017-10-11T14:04:08.225Z,25.75
2017-10-11T14:06:34.413Z,25.19
2017-10-11T14:09:00.659Z,25.56
2017-10-11T14:11:26.907Z,24.98
2017-10-11T14:13:53.101Z,25.11
2017-10-11T14:16:19.317Z,25.36
2017-10-11T14:18:45.542Z,25.18
2017-10-11T14:21:11.730Z,24.79
2017-10-11T14:23:37.965Z,24.59
2017-10-11T14:26:04.184Z,24.78
2017-10-11T14:31:03.200Z,25.61
2017-10-11T14:33:29.918Z,25.82
2017-10-11T14:35:56.225Z,25.39
2017-10-11T14:38:22.407Z,25.40
2017-10-11T14:40:48.594Z,25.43
2017-10-11T14:43:14.795Z,25.39
2017-10-11T14:45:41.792Z,25.16
2017-10-11T14:48:08.026Z,25.30
2017-10-11T14:50:34.240Z,25.18
2017-10-11T14:53:00.538Z,25.42
2017-10-11T14:55:26.859Z,25.33
2017-10-11T14:57:53.098Z,25.37
2017-10-11T15:00:19.327Z,25.34
2017-10-11T15:02:45.592Z,25.36
2017-10-11T15:05:11.891Z,24.96
2017-10-11T15:07:38.253Z,24.59
2017-10-11T15:10:04.606Z,24.47
2017-10-11T15:12:30.894Z,24.16
2017-10-11T15:14:57.127Z,23.60
2017-10-11T15:17:23.448Z,22.92
2017-10-11T15:19:49.703Z,22.05
2017-10-11T15:22:16.037Z,21.20
2017-10-11T15:24:42.210Z,20.68
2017-10-11T15:27:08.478Z,20.14
2017-10-11T15:29:34.674Z,19.78
2017-10-11T15:32:00.912Z,19.36
2017-10-11T15:34:27.159Z,18.92
2017-10-11T15:36:53.520Z,18.62
2017-10-11T15:39:19.861Z,18.33
2017-10-11T15:41:46.170Z,18.10
2017-10-11T15:44:12.475Z,17.89
2017-10-11T15:46:38.679Z,17.69
2017-10-11T15:49:04.950Z,17.46
2017-10-11T15:51:32.722Z,17.32
2017-10-11T15:53:59.085Z,17.24
2017-10-11T15:56:25.378Z,17.02
2017-10-11T15:58:51.587Z,16.86
2017-10-11T16:01:17.804Z,16.71
2017-10-11T16:03:44.019Z,16.55
2017-10-11T16:06:10.221Z,16.47
2017-10-11T16:08:36.517Z,16.43
2017-10-11T16:11:02.749Z,16.29
2017-10-11T16:13:28.961Z,16.19
2017-10-11T16:15:55.182Z,15.98
2017-10-11T16:18:21.411Z,15.97
2017-10-11T16:20:47.651Z,15.89
2017-10-11T16:23:13.840Z,15.81
2017-10-11T16:25:40.052Z,15.75
2017-10-11T16:28:06.260Z,15.62
2017-10-11T16:30:32.458Z,15.52
2017-10-11T16:32:58.683Z,15.40
2017-10-11T16:35:24.916Z,15.23
2017-10-11T16:37:51.117Z,15.15
2017-10-11T16:40:17.333Z,15.15
2017-10-11T16:42:43.522Z,14.97
2017-10-11T16:45:09.781Z,14.87
2017-10-11T16:47:35.994Z,14.87
2017-10-11T16:50:02.172Z,14.66
2017-10-11T16:52:28.359Z,14.42
2017-10-11T16:54:54.560Z,14.41
2017-10-11T16:57:20.825Z,14.37
2017-10-11T16:59:47.025Z,14.27
2017-10-11T17:02:13.242Z,14.29
2017-10-11T17:04:39.450Z,14.23
2017-10-11T17:07:05.643Z,14.15
2017-10-11T17:09:31.871Z,14.13
2017-10-11T17:11:58.081Z,14.07
2017-10-11T17:14:24.281Z,13.98
2017-10-11T17:16:50.473Z,13.88
2017-10-11T17:19:16.711Z,13.65
2017-10-11T17:21:42.984Z,13.62
2017-10-11T17:24:09.192Z,13.61
2017-10-11T17:26:35.383Z,13.58
2017-10-11T17:29:01.644Z,13.54
2017-10-11T17:31:27.876Z,13.43
2017-10-11T17:33:54.285Z,13.39
2017-10-11T17:36:20.495Z,13.36
2017-10-11T17:38:46.688Z,13.33
2017-10-11T17:41:12.963Z,13.26
2017-10-11T17:43:40.771Z,13.03
2017-10-11T17:46:06.990Z,12.93
2017-10-11T17:48:33.210Z,12.92
2017-10-11T17:50:59.422Z,12.81
2017-10-11T17:53:25.723Z,12.76
2017-10-11T17:55:51.907Z,12.67
2017-10-11T17:58:18.111Z,12.33
2017-10-11T18:00:44.308Z,12.20
2017-10-11T18:03:10.510Z,12.13
2017-10-11T18:05:36.838Z,11.92
2017-10-11T18:08:03.045Z,11.88
2017-10-11T18:10:29.268Z,11.80
2017-10-11T18:12:55.483Z,11.83
2017-10-11T18:15:21.711Z,11.77
2017-10-11T18:17:47.960Z,11.76
2017-10-11T18:20:14.200Z,11.64
2017-10-11T18:22:40.423Z,11.57
2017-10-11T18:25:06.650Z,11.51
2017-10-11T18:27:32.863Z,11.50
2017-10-11T18:29:59.080Z,11.61
2017-10-11T18:32:25.292Z,11.67
2017-10-11T18:34:51.528Z,11.64
2017-10-11T18:37:17.770Z,11.70
2017-10-11T18:39:44.034Z,11.77
2017-10-11T18:42:10.243Z,11.75
2017-10-11T18:44:36.454Z,11.68
2017-10-11T18:47:02.668Z,11.63
2017-10-11T18:49:28.948Z,11.53
2017-10-11T18:51:55.181Z,11.49
2017-10-11T18:54:21.380Z,11.44
2017-10-11T18:56:47.682Z,11.38
2017-10-11T18:59:13.902Z,11.24
2017-10-11T19:01:40.151Z,11.15
2017-10-11T19:04:06.380Z,11.04
2017-10-11T19:06:32.591Z,11.00
2017-10-11T19:08:58.792Z,11.06
2017-10-11T19:11:25.017Z,11.03
2017-10-11T19:13:51.240Z,11.00
2017-10-11T19:16:17.463Z,10.95
2017-10-11T19:18:43.682Z,10.89
2017-10-11T19:21:09.882Z,10.81
2017-10-11T19:23:36.124Z,10.75
2017-10-11T19:26:02.376Z,10.71
2017-10-11T19:28:28.580Z,10.61
2017-10-11T19:30:54.773Z,10.58
2017-10-11T19:33:20.978Z,10.53
2017-10-11T19:35:47.187Z,10.40
2017-10-11T19:38:13.430Z,10.34
2017-10-11T19:40:39.656Z,10.28
2017-10-11T19:43:05.886Z,10.28
2017-10-11T19:45:32.137Z,10.26
2017-10-11T19:47:58.350Z,10.21
2017-10-11T19:50:24.573Z,10.09
2017-10-11T19:52:50.785Z,10.00
2017-10-11T19:55:16.984Z,10.09
2017-10-11T19:57:43.193Z,10.05
2017-10-11T20:00:09.406Z,10.02
2017-10-11T20:02:35.611Z,10.00
2017-10-11T20:05:01.854Z,9.97
2017-10-11T20:07:28.070Z,9.98
2017-10-11T20:09:54.259Z,9.98
2017-10-11T20:12:20.519Z,9.76
2017-10-11T20:14:46.723Z,9.81
2017-10-11T20:17:13.004Z,9.92
2017-10-11T20:19:39.242Z,9.83
2017-10-11T20:22:05.555Z,9.79
2017-10-11T20:24:31.906Z,9.71
2017-10-11T20:26:58.251Z,9.70
2017-10-11T20:29:24.559Z,9.64
2017-10-11T20:31:50.965Z,9.51
2017-10-11T20:34:17.507Z,9.41
2017-10-11T20:36:44.218Z,9.34
2017-10-11T20:39:10.891Z,9.48
2017-10-11T20:41:37.243Z,9.49
2017-10-11T20:44:03.533Z,9.46
2017-10-11T20:46:29.776Z,9.36
2017-10-11T20:48:56.110Z,9.32
2017-10-11T20:51:22.438Z,9.35
2017-10-11T20:53:48.699Z,9.33
2017-10-11T20:56:15.015Z,9.37
2017-10-11T20:58:41.251Z,9.37
2017-10-11T21:01:07.573Z,9.39
2017-10-11T21:03:33.936Z,9.39
2017-10-11T21:06:00.254Z,9.35
2017-10-11T21:08:26.565Z,9.32
2017-10-11T21:10:52.806Z,9.26
2017-10-11T21:13:19.030Z,9.26
2017-10-11T21:15:45.339Z,9.27
2017-10-11T21:24:55.442Z,8.94
2017-10-11T21:27:21.641Z,8.91
2017-10-11T21:29:47.931Z,8.89
2017-10-11T21:32:14.236Z,8.84
2017-10-11T21:34:40.504Z,8.89
2017-10-11T21:37:06.813Z,8.90
2017-10-11T21:39:33.024Z,8.83
2017-10-11T21:41:59.264Z,8.84
2017-10-11T21:44:25.502Z,8.79
2017-10-11T21:46:51.715Z,8.72
2017-10-11T21:49:17.976Z,8.64
2017-10-11T21:51:44.313Z,8.62
2017-10-11T21:54:10.617Z,8.55
2017-10-11T21:56:36.863Z,8.57
2017-10-11T21:59:03.177Z,8.56
2017-10-11T22:01:29.403Z,8.50
2017-10-11T22:03:55.650Z,8.50
2017-10-11T22:06:21.888Z,8.48
2017-10-11T22:08:48.091Z,8.42
2017-10-11T22:11:14.450Z,8.41
2017-10-11T22:13:40.775Z,8.41
2017-10-11T22:16:07.004Z,8.43
2017-10-11T22:18:33.218Z,8.39
2017-10-11T22:20:59.464Z,8.45
2017-10-11T22:23:25.692Z,8.53
2017-10-11T22:25:51.908Z,8.58
2017-10-11T22:28:18.269Z,8.59
2017-10-11T22:30:44.589Z,8.60
2017-10-11T22:33:10.795Z,8.56
2017-10-11T22:35:37.023Z,8.49
2017-10-11T22:38:03.257Z,8.44
2017-10-11T22:40:29.509Z,8.43
2017-10-11T22:42:55.831Z,8.32
2017-10-11T22:45:22.057Z,8.28
2017-10-11T22:47:48.282Z,8.30
2017-10-11T22:50:14.505Z,8.31
2017-10-11T22:52:40.735Z,8.25
2017-10-11T22:55:07.032Z,8.22
2017-10-11T22:57:33.309Z,8.21
2017-10-11T22:59:59.544Z,8.20
2017-10-11T23:02:25.744Z,8.18
2017-10-11T23:04:51.999Z,8.20
2017-10-11T23:07:18.235Z,8.15
2017-10-11T23:09:44.431Z,8.13
2017-10-11T23:12:10.697Z,8.10
2017-10-11T23:14:36.908Z,8.08
2017-10-11T23:17:03.136Z,8.02
2017-10-11T23:19:29.366Z,8.03
2017-10-11T23:21:55.592Z,8.04
2017-10-11T23:24:21.824Z,7.97
2017-10-11T23:26:48.065Z,7.94
2017-10-11T23:29:14.288Z,7.90
2017-10-11T23:31:40.524Z,7.83
2017-10-11T23:34:06.761Z,7.70
2017-10-11T23:36:32.988Z,7.73
2017-10-11T23:38:59.224Z,7.75
2017-10-11T23:41:25.426Z,7.72
2017-10-11T23:43:51.669Z,7.72
2017-10-11T23:46:17.900Z,7.66
2017-10-11T23:48:44.120Z,7.57
2017-10-11T23:51:10.349Z,7.49
2017-10-11T23:53:36.593Z,7.60
2017-10-11T23:56:02.918Z,7.66
2017-10-11T23:58:29.162Z,7.65
